Time;durP1;ratioP1;P1;durP2;ratioP2;P2;SDS_P1;SDS_P2;PMS_P1;PMS_P2;Temp;Humidity;BMP_temperature;BMP_pressure;BME280_temperature;BME280_humidity;BME280_pressure;Samples;Min_cycle;Max_cycle;Signal;HPM_P1;HPM_P2
2023/10/01 00:01:40;;;;;;;3.08;1.33;;;;;;;17.96;80.90;101354.81;5066059;28;20043;-67
2023/10/01 00:04:07;;;;;;;5.05;1.20;;;;;;;17.93;80.75;101356.00;5061668;28;20109;-68
2023/10/01 00:06:36;;;;;;;3.47;1.42;;;;;;;17.97;80.82;101354.63;5061712;28;20059;-67
2023/10/01 00:09:05;;;;;;;4.10;1.35;;;;;;;17.96;80.79;101360.88;5060240;28;20032;-68
2023/10/01 00:11:37;;;;;;;3.33;1.42;;;;;;;17.95;80.70;101355.81;5062589;28;20563;-67
2023/10/01 00:14:08;;;;;;;5.03;1.20;;;;;;;17.92;80.84;101351.72;5056546;28;20036;-67
2023/10/01 00:16:37;;;;;;;3.85;1.30;;;;;;;17.84;81.45;101352.56;5060415;28;20033;-67
2023/10/01 00:19:03;;;;;;;3.05;1.35;;;;;;;17.84;81.06;101349.09;5060503;28;20118;-67
2023/10/01 00:21:28;;;;;;;2.85;1.30;;;;;;;17.82;81.62;101348.44;5063561;28;20040;-67
2023/10/01 00:23:54;;;;;;;4.88;1.25;;;;;;;17.90;80.93;101343.97;5053232;28;20393;-67
2023/10/01 00:26:20;;;;;;;3.55;1.45;;;;;;;17.95;80.35;101342.63;5064780;28;20036;-67
2023/10/01 00:28:45;;;;;;;2.20;1.00;;;;;;;17.96;80.62;101345.06;5060971;28;20037;-67
2023/10/01 00:31:11;;;;;;;3.15;1.15;;;;;;;17.92;81.04;101338.53;5068507;28;20032;-67
2023/10/01 00:33:36;;;;;;;2.90;1.23;;;;;;;17.93;80.81;101348.06;5068424;28;20055;-68
2023/10/01 00:36:02;;;;;;;3.88;1.08;;;;;;;17.89;80.68;101349.41;5069066;28;20112;-67
2023/10/01 00:38:28;;;;;;;3.65;1.33;;;;;;;17.86;80.92;101340.03;5067435;28;20050;-66
2023/10/01 00:40:54;;;;;;;3.60;1.13;;;;;;;17.90;80.54;101345.78;5065128;28;20029;-67
2023/10/01 00:43:25;;;;;;;8.90;1.58;;;;;;;17.76;82.46;101347.31;5065906;28;20039;-67
2023/10/01 00:45:51;;;;;;;2.80;1.25;;;;;;;17.62;82.07;101345.34;5063699;28;20044;-68
2023/10/01 00:48:18;;;;;;;7.20;1.50;;;;;;;17.53;82.50;101347.16;5068409;28;20480;-67
2023/10/01 00:50:44;;;;;;;3.13;1.35;;;;;;;17.50;83.22;101347.50;5064155;28;20029;-68
2023/10/01 00:53:10;;;;;;;4.13;1.23;;;;;;;17.38;84.19;101345.41;5066164;28;21440;-67
2023/10/01 00:55:37;;;;;;;3.38;1.13;;;;;;;17.37;84.16;101349.84;5061658;28;20062;-68
2023/10/01 00:58:04;;;;;;;4.30;1.55;;;;;;;17.43;83.59;101348.38;5066539;28;20145;-67
2023/10/01 01:00:29;;;;;;;5.20;1.00;;;;;;;17.45;83.70;101338.47;5063591;28;20025;-68
2023/10/01 01:05:24;;;;;;;3.58;1.60;;;;;;;17.49;83.08;101339.75;5066377;28;20561;-67
2023/10/01 01:07:50;;;;;;;3.50;1.45;;;;;;;17.52;82.76;101334.16;5064763;28;20039;-68
2023/10/01 01:10:18;;;;;;;5.22;1.40;;;;;;;17.52;82.99;101337.63;5065035;28;20032;-67
2023/10/01 01:12:51;;;;;;;4.05;1.45;;;;;;;17.51;82.91;101335.97;5062302;28;20060;-67
2023/10/01 01:15:16;;;;;;;2.60;1.10;;;;;;;17.49;83.37;101343.22;5069448;28;20028;-67
2023/10/01 01:17:43;;;;;;;2.47;0.98;;;;;;;17.46;83.02;101348.84;5084461;28;20360;-68
2023/10/01 01:20:13;;;;;;;3.90;1.23;;;;;;;17.48;82.73;101343.41;5063334;28;20041;-68
2023/10/01 01:22:47;;;;;;;4.85;1.58;;;;;;;17.43;83.06;101343.91;5061063;28;20115;-67
2023/10/01 01:25:20;;;;;;;5.38;1.67;;;;;;;17.45;83.36;101349.03;5067915;28;20123;-67
2023/10/01 01:27:50;;;;;;;3.05;1.33;;;;;;;17.47;83.43;101349.69;5070076;28;20024;-68
2023/10/01 01:30:19;;;;;;;6.13;1.40;;;;;;;17.50;82.68;101344.88;5070015;28;20381;-67
2023/10/01 01:32:53;;;;;;;5.90;1.25;;;;;;;17.51;82.69;101341.25;5060484;28;20039;-67
2023/10/01 01:35:27;;;;;;;2.72;0.90;;;;;;;17.38;83.84;101346.22;5072805;28;20123;-68
2023/10/01 01:37:58;;;;;;;3.38;1.45;;;;;;;17.24;84.17;101344.28;5066314;28;20454;-67
2023/10/01 01:40:25;;;;;;;3.85;1.30;;;;;;;17.25;83.96;101341.47;5074091;28;20036;-67
2023/10/01 01:43:02;;;;;;;4.38;1.00;;;;;;;17.33;83.67;101343.28;5069913;28;20036;-67
2023/10/01 01:45:28;;;;;;;3.33;1.20;;;;;;;17.33;84.08;101343.28;5078835;28;20044;-67
2023/10/01 01:47:54;;;;;;;2.90;1.23;;;;;;;17.37;83.15;101346.41;5068777;28;20060;-69
2023/10/01 01:50:26;;;;;;;4.15;1.35;;;;;;;17.23;84.56;101347.88;5067104;28;20056;-68
2023/10/01 01:52:56;;;;;;;1.92;1.10;;;;;;;17.24;83.85;101349.53;5067641;28;20044;-68
2023/10/01 01:55:34;;;;;;;4.60;1.50;;;;;;;17.19;84.21;101351.84;5071459;28;20119;-67
2023/10/01 01:58:09;;;;;;;3.60;1.13;;;;;;;17.11;84.52;101349.22;5072197;28;20043;-67
2023/10/01 02:00:37;;;;;;;4.03;1.25;;;;;;;16.99;85.79;101354.00;5065766;28;20128;-67
2023/10/01 02:03:14;;;;;;;3.67;1.52;;;;;;;17.05;85.72;101349.88;5071715;28;20445;-67
2023/10/01 02:05:47;;;;;;;3.15;1.02;;;;;;;17.08;85.32;101360.06;5067823;28;20024;-67
2023/10/01 02:08:34;;;;;;;2.38;1.33;;;;;;;17.11;84.72;101354.47;5072620;28;20028;-67
2023/10/01 02:11:04;;;;;;;2.55;1.20;;;;;;;17.12;84.37;101353.50;5070106;28;20021;-67
2023/10/01 02:13:32;;;;;;;4.65;1.25;;;;;;;17.14;84.59;101360.25;5069058;28;20032;-67
2023/10/01 02:16:18;;;;;;;6.63;1.40;;;;;;;17.14;84.44;101351.50;5072224;28;20044;-67
2023/10/01 02:18:42;;;;;;;2.00;0.93;;;;;;;17.12;85.35;101350.84;5070179;28;20460;-67
2023/10/01 02:21:16;;;;;;;2.90;1.13;;;;;;;17.12;84.66;101348.22;5072135;28;20078;-66
2023/10/01 02:23:42;;;;;;;8.00;1.05;;;;;;;17.19;84.22;101350.03;5067914;28;20460;-67
2023/10/01 02:26:07;;;;;;;3.08;1.42;;;;;;;17.34;83.05;101346.72;5072142;28;20048;-68
2023/10/01 02:28:33;;;;;;;4.18;1.38;;;;;;;17.35;83.20;101345.75;5069171;28;20551;-67
2023/10/01 02:31:00;;;;;;;3.03;1.45;;;;;;;17.38;82.63;101353.31;5073330;28;20028;-65
2023/10/01 02:36:12;;;;;;;5.23;1.50;;;;;;;17.56;81.50;101354.72;5072394;28;20040;-67
2023/10/01 02:38:45;;;;;;;2.63;1.05;;;;;;;17.63;80.90;101351.44;5069728;28;20096;-66
2023/10/01 02:41:14;;;;;;;2.25;0.75;;;;;;;17.64;81.39;101350.44;5071159;28;20033;-67
2023/10/01 02:43:41;;;;;;;3.03;1.17;;;;;;;17.55;81.49;101353.09;5069668;28;20047;-67
2023/10/01 02:46:12;;;;;;;3.83;1.25;;;;;;;17.53;81.95;101352.44;5070850;28;20102;-67
2023/10/01 02:48:41;;;;;;;6.38;1.23;;;;;;;17.55;81.51;101347.81;5070316;28;20413;-67
2023/10/01 02:51:16;;;;;;;7.53;1.52;;;;;;;17.53;81.40;101354.25;5067875;28;20381;-67
2023/10/01 02:56:33;;;;;;;4.18;1.20;;;;;;;17.46;81.89;101351.50;5069908;28;20067;-67
2023/10/01 02:59:13;;;;;;;3.90;1.83;;;;;;;17.44;82.19;101335.03;5066185;28;20048;-67
2023/10/01 03:01:46;;;;;;;3.05;1.20;;;;;;;17.44;81.61;101348.19;5070239;28;20052;-67
2023/10/01 03:04:13;;;;;;;3.28;1.52;;;;;;;17.41;81.72;101361.69;5068000;28;20669;-67
2023/10/01 03:06:57;;;;;;;3.42;1.30;;;;;;;17.40;81.61;101354.78;5067246;28;20036;-67
2023/10/01 03:09:39;;;;;;;2.78;1.20;;;;;;;17.22;82.95;101354.97;5068044;28;20158;-67
2023/10/01 03:15:17;;;;;;;4.78;1.75;;;;;;;17.14;83.09;101348.88;5063734;28;20205;-67
2023/10/01 03:25:59;;;;;;;2.72;1.75;;;;;;;16.65;85.98;101354.13;5068305;28;20479;-67
2023/10/01 03:28:35;;;;;;;4.45;1.23;;;;;;;16.60;85.64;101361.66;5070060;28;20039;-67
2023/10/01 03:31:08;;;;;;;4.72;1.70;;;;;;;16.69;85.13;101359.91;5067452;28;20103;-67
2023/10/01 03:33:38;;;;;;;4.63;1.58;;;;;;;16.74;85.40;101362.88;5068051;28;20124;-67
2023/10/01 03:36:12;;;;;;;3.42;1.35;;;;;;;16.73;84.88;101362.03;5068884;28;20032;-67
2023/10/01 03:38:43;;;;;;;3.97;1.40;;;;;;;16.66;85.47;101366.31;5069545;28;20175;-67
2023/10/01 03:41:20;;;;;;;3.30;1.33;;;;;;;16.59;85.92;101367.91;5074181;28;20365;-67
2023/10/01 03:43:47;;;;;;;3.53;1.05;;;;;;;16.51;85.93;101371.38;5065772;28;20032;-67
2023/10/01 03:49:00;;;;;;;2.30;1.45;;;;;;;16.54;86.54;101364.97;5066628;28;20049;-67
2023/10/01 03:51:58;;;;;;;3.78;1.42;;;;;;;16.57;85.63;101375.13;5067363;28;20422;-67
2023/10/01 03:54:20;;;;;;;3.38;1.40;;;;;;;16.45;86.86;101368.56;5069348;28;20044;-67
2023/10/01 03:56:56;;;;;;;5.45;1.48;;;;;;;16.32;87.50;101373.44;5068512;28;20068;-67
2023/10/01 03:59:32;;;;;;;4.03;1.20;;;;;;;16.34;87.20;101368.84;5069832;28;20024;-67
2023/10/01 04:01:58;;;;;;;2.45;1.27;;;;;;;16.24;87.77;101368.97;5068106;28;20533;-67
2023/10/01 04:04:28;;;;;;;2.42;1.65;;;;;;;16.29;87.13;101371.13;5068144;28;20126;-67
2023/10/01 04:06:56;;;;;;;2.92;1.20;;;;;;;16.38;87.13;101372.81;5069432;28;20119;-67
2023/10/01 04:09:26;;;;;;;3.88;1.65;;;;;;;16.38;86.93;101368.38;5062230;28;20147;-67
2023/10/01 04:11:57;;;;;;;3.35;1.25;;;;;;;16.30;87.58;101376.22;5066213;28;20150;-67
2023/10/01 04:14:23;;;;;;;7.47;1.92;;;;;;;16.40;87.08;101373.47;5061416;28;20036;-67
2023/10/01 04:16:48;;;;;;;3.72;1.50;;;;;;;16.39;86.71;101379.72;5059259;28;20432;-67
2023/10/01 04:19:18;;;;;;;2.38;0.93;;;;;;;16.28;87.11;101388.72;5062888;28;20089;-67
2023/10/01 04:21:50;;;;;;;3.55;1.60;;;;;;;16.06;88.53;101384.03;5069539;28;20077;-67
2023/10/01 04:24:16;;;;;;;3.63;1.48;;;;;;;15.89;89.30;101377.88;5066673;28;20040;-67
2023/10/01 04:26:42;;;;;;;2.92;1.45;;;;;;;16.01;88.87;101381.88;5069161;28;20028;-67
2023/10/01 04:29:08;;;;;;;7.15;1.63;;;;;;;16.19;87.49;101387.84;5069017;28;20032;-67
2023/10/01 04:31:47;;;;;;;4.90;1.17;;;;;;;16.14;87.50;101390.13;5072457;28;20113;-67
2023/10/01 04:34:14;;;;;;;3.10;1.25;;;;;;;16.01;88.04;101395.03;5065721;28;20028;-67
2023/10/01 04:36:50;;;;;;;4.50;1.20;;;;;;;16.14;87.66;101405.91;5069648;28;20047;-67
2023/10/01 04:39:17;;;;;;;3.20;1.50;;;;;;;16.40;85.78;101405.03;5071350;28;20028;-67
2023/10/01 04:41:42;;;;;;;3.33;1.20;;;;;;;16.57;84.54;101399.63;5067357;28;20024;-67
2023/10/01 04:44:08;;;;;;;4.20;1.40;;;;;;;16.63;84.29;101403.44;5071358;28;20047;-67
2023/10/01 04:46:37;;;;;;;4.95;1.45;;;;;;;16.70;83.77;101399.22;5067876;28;20035;-67
2023/10/01 04:49:27;;;;;;;3.65;0.90;;;;;;;16.75;83.69;101406.63;5070168;28;20369;-67
2023/10/01 04:51:58;;;;;;;4.53;1.38;;;;;;;16.72;83.86;101402.50;5066970;28;20532;-67
2023/10/01 04:54:25;;;;;;;3.63;1.30;;;;;;;16.60;84.69;101399.31;5067571;28;20060;-67
2023/10/01 04:56:52;;;;;;;2.88;1.80;;;;;;;16.48;85.48;101399.81;5060778;28;20036;-67
2023/10/01 04:59:18;;;;;;;2.97;1.23;;;;;;;16.41;85.65;101407.50;5069222;28;20036;-67
2023/10/01 05:01:44;;;;;;;3.60;1.02;;;;;;;16.43;85.51;101407.34;5068006;28;20121;-67
2023/10/01 05:04:11;;;;;;;3.78;1.48;;;;;;;16.42;85.71;101411.78;5067745;28;20100;-67
2023/10/01 05:06:40;;;;;;;4.10;1.55;;;;;;;16.51;85.11;101410.81;5067947;28;20031;-67
2023/10/01 05:09:08;;;;;;;2.17;1.35;;;;;;;16.55;84.87;101416.56;5070827;28;20028;-67
2023/10/01 05:11:33;;;;;;;3.35;1.80;;;;;;;16.46;85.47;101423.63;5068391;28;20032;-67
2023/10/01 05:13:59;;;;;;;4.85;1.27;;;;;;;16.46;85.74;101428.06;5062743;28;20064;-67
2023/10/01 05:16:28;;;;;;;3.45;1.38;;;;;;;16.47;85.34;101429.72;5068774;28;20468;-68
2023/10/01 05:19:13;;;;;;;4.03;1.27;;;;;;;16.40;85.82;101423.44;5065200;28;20036;-72
2023/10/01 05:21:56;;;;;;;2.97;1.42;;;;;;;16.33;86.56;101432.94;5068209;28;20567;-69
2023/10/01 05:24:39;;;;;;;4.88;1.52;;;;;;;16.32;86.81;101433.91;5060188;28;20029;-66
2023/10/01 05:27:18;;;;;;;3.20;1.33;;;;;;;16.23;87.43;101447.03;5064358;28;20033;-66
2023/10/01 05:29:45;;;;;;;3.10;1.17;;;;;;;16.18;87.95;101446.69;5061263;28;20027;-67
2023/10/01 05:32:11;;;;;;;3.63;1.63;;;;;;;16.18;88.03;101446.69;5072004;28;20051;-67
2023/10/01 05:34:40;;;;;;;4.50;1.33;;;;;;;16.17;87.37;101452.91;5065862;28;20542;-67
2023/10/01 05:37:09;;;;;;;2.17;0.90;;;;;;;16.15;88.04;101451.41;5068378;28;20410;-67
2023/10/01 05:39:55;;;;;;;4.20;1.70;;;;;;;16.11;89.33;101453.53;5068540;28;20035;-67
2023/10/01 05:42:31;;;;;;;4.90;1.95;;;;;;;16.06;89.54;101449.75;5065299;28;20086;-67
2023/10/01 05:44:59;;;;;;;5.25;2.00;;;;;;;16.09;88.77;101449.41;5074574;28;20041;-67
2023/10/01 05:50:12;;;;;;;5.90;1.63;;;;;;;16.35;87.63;101454.66;5067877;28;20048;-67
2023/10/01 05:52:40;;;;;;;3.65;1.58;;;;;;;16.43;86.74;101449.41;5066021;28;20236;-67
2023/10/01 05:55:12;;;;;;;3.70;1.80;;;;;;;16.44;88.32;101458.97;5071089;28;20030;-67
2023/10/01 05:57:40;;;;;;;3.65;1.77;;;;;;;16.44;87.28;101458.97;5071693;28;20132;-67
2023/10/01 06:00:16;;;;;;;4.95;1.38;;;;;;;16.44;87.23;101451.91;5072087;28;20224;-67
2023/10/01 06:03:00;;;;;;;3.40;1.40;;;;;;;16.46;87.93;101464.88;5071453;28;20039;-67
2023/10/01 06:05:32;;;;;;;4.32;1.50;;;;;;;16.54;87.96;101473.63;5070372;28;20159;-67
2023/10/01 06:07:58;;;;;;;5.18;1.55;;;;;;;16.57;87.88;101475.09;5072510;28;20036;-67
2023/10/01 06:10:27;;;;;;;3.97;1.20;;;;;;;16.61;87.54;101479.06;5071434;28;20031;-67
2023/10/01 06:12:56;;;;;;;3.50;1.42;;;;;;;16.66;87.32;101486.50;5071585;28;20033;-67
2023/10/01 06:15:25;;;;;;;4.78;1.45;;;;;;;16.71;87.12;101494.75;5064020;28;20571;-67
2023/10/01 06:17:51;;;;;;;4.22;1.48;;;;;;;16.82;87.27;101497.09;5071880;28;20032;-67
2023/10/01 06:20:29;;;;;;;5.82;1.58;;;;;;;16.91;86.63;101501.41;5072882;28;20032;-67
2023/10/01 06:22:55;;;;;;;3.13;1.73;;;;;;;17.08;85.82;101495.16;5070254;28;20044;-67
2023/10/01 06:25:37;;;;;;;3.95;1.40;;;;;;;17.28;85.18;101498.34;5069733;28;20484;-67
2023/10/01 06:28:19;;;;;;;4.30;2.10;;;;;;;17.30;85.96;101496.38;5071805;28;20089;-67
2023/10/01 06:30:46;;;;;;;4.22;1.52;;;;;;;17.32;86.13;101499.66;5070788;28;20057;-67
2023/10/01 06:33:29;;;;;;;4.93;1.85;;;;;;;17.58;83.82;101505.59;5067709;28;20028;-67
2023/10/01 06:38:39;;;;;;;5.88;1.98;;;;;;;17.95;81.44;101509.56;5065544;28;20437;-66
2023/10/01 06:41:06;;;;;;;3.15;1.23;;;;;;;18.07;81.08;101513.47;5067348;28;20033;-67
2023/10/01 06:43:44;;;;;;;2.95;1.48;;;;;;;18.14;80.65;101511.81;5063741;28;20391;-66
2023/10/01 06:46:11;;;;;;;3.75;1.45;;;;;;;18.26;80.48;101519.38;5066326;28;20112;-67
2023/10/01 06:48:39;;;;;;;4.72;1.70;;;;;;;18.37;80.38;101519.84;5067144;28;20824;-67
2023/10/01 06:51:06;;;;;;;5.70;1.65;;;;;;;18.43;80.00;101524.41;5072650;28;20072;-67
2023/10/01 06:53:45;;;;;;;3.78;1.38;;;;;;;18.46;80.04;101521.44;5068470;28;20029;-67
2023/10/01 06:56:16;;;;;;;2.75;1.23;;;;;;;18.49;80.21;101515.81;5066285;28;20040;-73
2023/10/01 06:58:43;;;;;;;3.22;1.38;;;;;;;18.49;80.47;101520.25;5064006;28;20389;-72
2023/10/01 07:01:34;;;;;;;4.05;1.13;;;;;;;18.53;80.37;101511.00;5070584;28;20040;-73
2023/10/01 07:03:57;;;;;;;2.85;1.33;;;;;;;18.58;79.90;101521.88;5064745;28;20041;-72
2023/10/01 07:06:22;;;;;;;4.32;1.52;;;;;;;18.62;80.23;101517.94;5067367;28;20102;-72
2023/10/01 07:08:48;;;;;;;3.53;1.60;;;;;;;18.67;79.98;101525.34;5070433;28;20029;-72
2023/10/01 07:11:18;;;;;;;3.90;1.52;;;;;;;18.69;79.83;101518.91;5070436;28;20106;-72
2023/10/01 07:13:43;;;;;;;6.15;1.88;;;;;;;18.77;79.65;101518.88;5067140;28;20037;-73
2023/10/01 07:16:09;;;;;;;5.25;2.05;;;;;;;18.82;79.75;101519.19;5072430;28;20532;-73
2023/10/01 07:18:37;;;;;;;2.90;1.42;;;;;;;18.83;79.58;101526.09;5059559;28;20029;-73
2023/10/01 07:21:11;;;;;;;4.65;1.85;;;;;;;19.00;79.09;101526.81;5062677;28;20496;-74
2023/10/01 07:23:38;;;;;;;3.03;1.63;;;;;;;19.12;78.68;101535.16;5064624;28;20070;-74
2023/10/01 07:26:12;;;;;;;4.75;1.42;;;;;;;19.29;76.86;101536.72;5069888;28;20060;-73
2023/10/01 07:28:41;;;;;;;4.00;2.00;;;;;;;19.41;77.10;101537.13;5068087;28;20032;-73
2023/10/01 07:31:07;;;;;;;3.55;1.30;;;;;;;19.50;76.45;101541.34;5065190;28;20375;-73
2023/10/01 07:33:33;;;;;;;3.90;1.70;;;;;;;19.53;76.52;101541.84;5067908;28;20447;-73
2023/10/01 07:35:59;;;;;;;4.82;1.30;;;;;;;19.50;76.66;101531.59;5064178;28;20044;-73
2023/10/01 07:38:28;;;;;;;2.15;1.55;;;;;;;19.57;75.99;101530.91;5067147;28;20024;-73
2023/10/01 07:41:07;;;;;;;3.75;1.52;;;;;;;19.68;76.11;101538.44;5061475;28;20116;-74
2023/10/01 07:43:33;;;;;;;5.60;1.98;;;;;;;19.71;76.21;101543.38;5063343;28;20042;-73
2023/10/01 07:46:01;;;;;;;5.07;2.17;;;;;;;19.81;75.33;101546.59;5066119;28;20033;-73
2023/10/01 07:48:28;;;;;;;4.18;1.80;;;;;;;19.86;75.10;101549.50;5069987;28;20593;-74
2023/10/01 07:51:03;;;;;;;5.32;1.77;;;;;;;19.97;73.93;101543.78;5070119;28;20425;-73
2023/10/01 07:53:32;;;;;;;3.42;1.88;;;;;;;20.07;74.66;101543.53;5063285;28;20028;-73
2023/10/01 07:56:07;;;;;;;3.95;1.85;;;;;;;20.00;73.70;101538.13;5056070;28;20045;-73
2023/10/01 07:58:47;;;;;;;4.10;1.70;;;;;;;20.05;74.53;101554.28;5063685;28;20028;-73
2023/10/01 08:04:05;;;;;;;3.53;1.83;;;;;;;20.19;74.68;101555.31;5064614;28;20071;-73
2023/10/01 08:06:42;;;;;;;4.20;1.88;;;;;;;20.15;75.19;101560.16;5058977;28;20146;-72
2023/10/01 08:09:13;;;;;;;3.38;1.48;;;;;;;20.22;74.79;101554.97;5068387;28;20035;-73
2023/10/01 08:12:05;;;;;;;5.20;1.88;;;;;;;20.34;74.13;101556.13;5075648;28;20048;-72
2023/10/01 08:14:34;;;;;;;4.00;1.77;;;;;;;20.40;73.60;101565.19;5077277;28;20046;-73
2023/10/01 08:17:03;;;;;;;4.25;1.38;;;;;;;20.54;74.03;101559.09;5065666;28;20041;-73
2023/10/01 08:20:14;;;;;;;6.32;1.98;;;;;;;20.58;73.75;101563.00;5058593;28;20028;-73
2023/10/01 08:22:23;;;;;;;5.85;2.40;;;;;;;20.56;73.17;101559.72;5056883;28;20500;-73
2023/10/01 08:24:50;;;;;;;7.57;2.00;;;;;;;20.55;72.84;101558.09;5064390;28;20384;-73
2023/10/01 08:27:31;;;;;;;4.82;1.85;;;;;;;20.64;72.20;101557.00;5068880;28;20365;-73
2023/10/01 08:30:40;;;;;;;3.42;1.73;;;;;;;20.76;73.23;101557.34;5065939;28;20041;-73
2023/10/01 08:32:53;;;;;;;4.55;2.30;;;;;;;20.74;73.60;101562.00;5064554;28;20036;-73
2023/10/01 08:35:34;;;;;;;5.72;2.17;;;;;;;20.74;73.79;101562.81;5066002;28;20089;-73
2023/10/01 08:37:59;;;;;;;5.68;2.00;;;;;;;20.80;74.27;101563.88;5061922;28;20032;-73
2023/10/01 08:40:27;;;;;;;6.00;2.67;;;;;;;20.83;75.00;101559.03;5065728;28;20032;-73
2023/10/01 08:42:53;;;;;;;6.47;2.70;;;;;;;20.80;75.49;101571.84;5065598;28;20162;-76
2023/10/01 08:45:34;;;;;;;7.40;2.50;;;;;;;20.84;75.17;101571.28;5064872;28;20024;-77
2023/10/01 08:48:01;;;;;;;3.80;2.20;;;;;;;21.05;73.98;101569.69;5064126;28;20036;-75
2023/10/01 08:50:27;;;;;;;4.45;2.38;;;;;;;21.10;72.96;101569.97;5065723;28;20036;-75
2023/10/01 08:52:57;;;;;;;4.57;2.47;;;;;;;21.07;73.75;101576.47;5064486;28;20029;-74
2023/10/01 08:55:25;;;;;;;4.75;2.40;;;;;;;21.12;73.54;101565.31;5064414;28;20035;-75
2023/10/01 08:57:54;;;;;;;5.70;2.45;;;;;;;21.22;72.10;101560.56;5065274;28;20063;-75
2023/10/01 09:00:24;;;;;;;6.82;2.20;;;;;;;21.28;71.90;101564.25;5064343;28;20036;-75
2023/10/01 09:03:10;;;;;;;4.35;2.30;;;;;;;21.31;71.65;101570.00;5062567;28;20071;-73
2023/10/01 09:05:37;;;;;;;4.13;1.92;;;;;;;21.37;71.61;101563.13;5062255;28;20597;-69
2023/10/01 09:08:15;;;;;;;5.72;2.03;;;;;;;21.40;71.62;101560.94;5063115;28;20086;-69
2023/10/01 09:10:53;;;;;;;6.85;2.63;;;;;;;21.38;71.83;101557.63;5062815;28;20021;-68
2023/10/01 09:13:23;;;;;;;5.20;2.13;;;;;;;21.37;72.81;101560.47;5060348;28;20512;-68
2023/10/01 09:15:55;;;;;;;4.85;2.40;;;;;;;21.43;71.30;101555.25;5069592;28;20107;-69
2023/10/01 09:18:25;;;;;;;4.13;1.85;;;;;;;21.34;72.42;101548.41;5068943;28;20051;-70
2023/10/01 09:21:20;;;;;;;4.70;2.55;;;;;;;21.34;72.41;101561.69;5071723;28;20487;-69
2023/10/01 09:23:56;;;;;;;5.32;1.88;;;;;;;21.61;70.29;101559.28;5069091;28;20149;-69
2023/10/01 09:26:53;;;;;;;6.32;2.70;;;;;;;21.60;69.38;101560.31;5070455;28;20108;-68
2023/10/01 09:29:23;;;;;;;4.60;2.40;;;;;;;21.56;70.73;101565.16;5070640;28;20368;-69
2023/10/01 09:31:56;;;;;;;4.03;2.22;;;;;;;21.61;71.29;101559.28;5070281;28;20025;-68
2023/10/01 09:34:31;;;;;;;4.05;2.15;;;;;;;21.57;72.35;101560.69;5070266;28;20464;-68
2023/10/01 09:39:55;;;;;;;4.88;2.00;;;;;;;21.44;73.56;101554.25;5072443;28;20102;-69
2023/10/01 09:42:28;;;;;;;4.25;1.90;;;;;;;21.41;73.45;101562.56;5072562;28;20032;-69
2023/10/01 09:45:09;;;;;;;5.47;2.17;;;;;;;21.39;73.36;101553.97;5071895;28;20546;-69
2023/10/01 09:47:35;;;;;;;4.35;2.40;;;;;;;21.37;73.46;101556.00;5072589;28;20036;-70
2023/10/01 09:50:04;;;;;;;5.55;2.70;;;;;;;21.33;73.96;101557.38;5072897;28;20035;-70
2023/10/01 09:52:48;;;;;;;8.10;2.60;;;;;;;21.50;72.65;101553.47;5070211;28;20031;-68
2023/10/01 09:55:26;;;;;;;7.75;2.78;;;;;;;21.58;73.16;101551.72;5068175;28;20040;-69
2023/10/01 09:57:54;;;;;;;4.80;2.40;;;;;;;21.49;73.43;101556.31;5063026;28;20048;-69
2023/10/01 10:00:21;;;;;;;4.68;2.33;;;;;;;21.64;72.81;101549.13;5063731;28;20032;-69
2023/10/01 10:02:53;;;;;;;7.72;2.83;;;;;;;21.70;72.98;101544.91;5061416;28;20123;-69
2023/10/01 10:05:25;;;;;;;4.97;3.10;;;;;;;21.64;73.81;101545.66;5061880;28;20043;-69
2023/10/01 10:07:55;;;;;;;3.05;1.88;;;;;;;21.78;73.33;101553.50;5061924;28;20029;-69
2023/10/01 10:10:25;;;;;;;8.45;2.92;;;;;;;21.78;73.83;101555.34;5059612;28;20032;-70
2023/10/01 10:12:59;;;;;;;6.30;2.42;;;;;;;21.83;73.57;101547.63;5060940;28;20028;-69
2023/10/01 10:15:59;;;;;;;4.18;2.00;;;;;;;21.80;73.43;101550.66;5065464;28;20032;-74
2023/10/01 10:18:25;;;;;;;5.32;2.15;;;;;;;21.83;73.29;101550.28;5063229;28;20043;-76
2023/10/01 10:21:03;;;;;;;7.43;1.85;;;;;;;21.86;72.71;101552.56;5063355;28;20875;-76
2023/10/01 10:23:31;;;;;;;6.38;1.73;;;;;;;21.84;71.75;101549.25;5057756;28;20041;-76
2023/10/01 10:26:14;;;;;;;7.53;2.25;;;;;;;22.04;68.95;101552.94;5070486;28;20033;-75
2023/10/01 10:28:53;;;;;;;5.68;2.25;;;;;;;22.31;67.92;101543.28;5063734;28;20044;-75
2023/10/01 10:31:30;;;;;;;3.10;1.48;;;;;;;22.44;65.46;101543.38;5065064;28;20027;-75
2023/10/01 10:34:24;;;;;;;5.05;1.95;;;;;;;22.38;67.46;101551.28;5064137;28;20115;-72
2023/10/01 10:36:54;;;;;;;5.68;2.15;;;;;;;22.25;68.76;101549.38;5064563;28;20033;-74
2023/10/01 10:39:45;;;;;;;6.78;2.60;;;;;;;22.21;67.07;101547.34;5063416;28;20032;-73
2023/10/01 10:42:29;;;;;;;7.55;3.25;;;;;;;22.52;66.46;101548.53;5066522;28;20024;-72
2023/10/01 10:45:20;;;;;;;5.10;1.98;;;;;;;22.56;64.95;101550.78;5062502;28;20392;-73
2023/10/01 10:48:03;;;;;;;8.38;4.18;;;;;;;22.46;66.23;101553.78;5063210;28;20033;-73
2023/10/01 10:50:53;;;;;;;4.05;1.40;;;;;;;22.46;64.34;101545.81;5060233;28;20068;-73
2023/10/01 10:53:39;;;;;;;11.52;6.32;;;;;;;22.37;65.45;101544.34;5066851;28;20081;-73
2023/10/01 10:56:10;;;;;;;16.58;8.23;;;;;;;22.29;65.52;101537.34;5064855;28;20127;-73
2023/10/01 10:58:46;;;;;;;6.45;3.90;;;;;;;22.41;66.13;101534.97;5076640;28;20033;-73
2023/10/01 11:03:47;;;;;;;3.55;1.13;;;;;;;22.61;64.68;101530.59;5059847;28;20040;-73
2023/10/01 11:06:23;;;;;;;4.38;1.77;;;;;;;22.56;63.54;101534.84;5063832;28;20376;-73
2023/10/01 11:08:51;;;;;;;4.15;1.35;;;;;;;22.49;64.42;101532.16;5066465;28;20158;-73
2023/10/01 11:11:23;;;;;;;3.60;1.23;;;;;;;22.65;60.86;101525.69;5067115;28;20099;-73
2023/10/01 11:13:59;;;;;;;7.13;2.33;;;;;;;22.63;63.20;101527.72;5066688;28;20058;-74
2023/10/01 11:16:33;;;;;;;3.50;1.55;;;;;;;22.75;62.76;101523.47;5061637;28;20040;-73
2023/10/01 11:19:12;;;;;;;3.22;0.98;;;;;;;22.64;64.39;101524.06;5063893;28;20032;-73
2023/10/01 11:22:00;;;;;;;3.47;1.48;;;;;;;22.62;63.42;101520.78;5062242;28;20232;-73
2023/10/01 11:24:33;;;;;;;4.25;1.30;;;;;;;22.58;63.47;101516.88;5062513;28;20036;-74
2023/10/01 11:27:25;;;;;;;4.78;1.30;;;;;;;22.49;64.42;101500.28;5067242;28;20064;-73
2023/10/01 11:30:12;;;;;;;4.57;1.77;;;;;;;22.41;65.86;101506.59;5064800;28;20380;-73
2023/10/01 11:35:34;;;;;;;2.70;1.25;;;;;;;22.30;66.88;101493.03;5066786;28;20052;-74
2023/10/01 11:38:09;;;;;;;3.83;1.40;;;;;;;22.41;65.87;101500.47;5071098;28;20059;-75
2023/10/01 11:41:06;;;;;;;5.35;1.40;;;;;;;22.61;65.44;101488.09;5063751;28;20136;-76
2023/10/01 11:43:27;;;;;;;4.32;1.67;;;;;;;22.71;66.06;101485.84;5066190;28;20103;-73
2023/10/01 11:46:21;;;;;;;3.38;1.70;;;;;;;22.59;66.50;101491.97;5062737;28;20029;-73
2023/10/01 11:49:15;;;;;;;3.60;1.60;;;;;;;22.51;65.17;101498.25;5061680;28;20105;-74
2023/10/01 11:51:47;;;;;;;2.85;1.48;;;;;;;22.53;65.30;101488.25;5063065;28;20086;-73
2023/10/01 11:54:25;;;;;;;2.50;1.20;;;;;;;22.96;63.19;101482.69;5066474;28;20021;-73
2023/10/01 11:57:04;;;;;;;4.63;1.38;;;;;;;23.20;62.88;101482.09;5062422;28;20789;-73
2023/10/01 11:59:31;;;;;;;4.03;1.50;;;;;;;23.12;62.82;101484.97;5062267;28;20036;-74
2023/10/01 12:02:15;;;;;;;3.63;1.70;;;;;;;23.01;63.49;101482.91;5065400;28;20071;-74
2023/10/01 12:04:44;;;;;;;3.80;1.30;;;;;;;22.81;64.53;101470.38;5061519;28;20024;-74
2023/10/01 12:07:17;;;;;;;2.75;1.10;;;;;;;22.90;63.77;101468.38;5062683;28;20119;-74
2023/10/01 12:09:49;;;;;;;7.28;1.67;;;;;;;22.98;63.78;101478.00;5060784;28;20066;-74
2023/10/01 12:12:19;;;;;;;2.70;1.13;;;;;;;22.90;62.81;101471.03;5062779;28;20502;-74
2023/10/01 12:14:55;;;;;;;4.60;1.55;;;;;;;22.94;62.80;101477.59;5062823;28;20035;-74
2023/10/01 12:17:23;;;;;;;3.53;1.67;;;;;;;22.92;63.21;101478.81;5061401;28;20391;-75
2023/10/01 12:19:57;;;;;;;4.43;1.50;;;;;;;22.90;62.67;101475.53;5060958;28;20032;-75
2023/10/01 12:22:25;;;;;;;2.70;1.02;;;;;;;22.90;64.07;101475.53;5061896;28;20559;-74
2023/10/01 12:24:58;;;;;;;4.13;1.80;;;;;;;22.84;64.53;101466.50;5061908;28;20028;-73
2023/10/01 12:27:37;;;;;;;3.17;1.58;;;;;;;22.76;64.96;101464.00;5060806;28;20039;-73